Latest Weather Observations for Townsville

IDQ60801

Issued at 12:02 pm EST Monday 30 March 2015 (issued every 30 minutes, with the page automatically refreshed every 10 minutes)

About weather observations | Map of weather stations | Latest weather observations for QLD | Other Formats
Station Details ID: 032040 Name: TOWNSVILLE AERO Lat: -19.25 Lon: 146.77 Height: 4.34 m
Data from the previous 72 hours. | See also: Recent months at Townsville
Date/Time
EST
Temp
°C
App
Temp
°C
Dew
Point
Rel
Hum
%
Delta-T
°C
Wind Press
QNH
hPa
Press
MSL
hPa
Rain
since 9 am
mm
Dir
 
Spd
km/h
Gust
km/h
Spd
kts
Gust
kts
30/11:30am 31.7 28.9 19.1 47 8.2 E 32 37 17 20 1017.2 - 0.0
30/11:00am 31.9 29.7 18.8 45 8.5 E 28 37 15 20 1017.8 - 0.0
30/10:30am 30.8 28.9 19.3 50 7.5 E 28 41 15 22 1018.1 - 0.0
30/10:00am 30.2 28.3 19.3 52 7.1 ESE 28 37 15 20 1018.2 - 0.0
30/09:30am 29.6 28.1 19.5 54 6.6 ESE 26 35 14 19 1018.3 - 0.0
30/09:00am 28.8 28.2 20.5 61 5.5 SE 24 32 13 17 1018.3 1018.2 0.0
30/08:30am 28.0 27.1 20.7 64 4.8 SE 26 35 14 19 1018.0 - 0.0
30/08:00am 27.9 29.1 20.6 64 4.8 SE 15 22 8 12 1017.3 - 0.0
30/07:30am 26.9 28.2 20.2 66 4.4 SE 13 15 7 8 1016.9 - 0.0
30/07:00am 26.0 27.2 20.0 69 3.9 SE 13 17 7 9 1016.9 - 0.0
30/06:30am 25.1 26.7 20.0 73 3.3 S 11 13 6 7 1016.7 - 0.0
30/05:30am 25.4 27.0 20.0 72 3.5 S 11 15 6 8 1016.2 - 0.0
30/05:00am 25.4 27.3 19.8 71 3.6 SE 9 13 5 7 1015.9 - 0.0
30/04:30am 25.5 27.4 19.8 70 3.7 SE 9 13 5 7 1015.6 - 0.0
30/04:00am 25.4 26.9 19.7 70 3.7 SSE 11 13 6 7 1015.5 - 0.0
30/03:30am 25.5 26.9 19.6 70 3.8 SSE 11 15 6 8 1015.5 - 0.0
30/03:00am 25.7 27.6 19.7 69 3.9 SSE 9 11 5 6 1015.7 1015.6 0.0
30/02:30am 26.2 27.2 19.4 66 4.4 SE 13 19 7 10 1015.9 - 0.0
30/02:00am 26.1 27.2 19.6 67 4.2 SE 13 17 7 9 1016.1 - 0.0
30/01:30am 26.5 27.6 19.7 66 4.4 SE 13 17 7 9 1016.6 - 0.0
30/01:00am 26.8 27.1 19.7 65 4.6 ESE 17 20 9 11 1016.8 - 0.0
30/12:30am 26.9 27.8 20.0 66 4.5 SE 15 19 8 10 1017.2 - 0.0
30/12:00am 27.0 28.2 19.9 65 4.6 SE 13 17 7 9 1017.4 1017.3 0.0
 
Date/Time
EST
Temp
°C
App
Temp
°C
Dew
Point
Rel
Hum
%
Delta-T
°C
Wind Press
QNH
hPa
Press
MSL
hPa
Rain
since 9 am
mm
Dir
 
Spd
km/h
Gust
km/h
Spd
kts
Gust
kts
29/11:30pm 27.1 28.2 19.7 64 4.8 SE 13 17 7 9 1017.5 - 0.0
29/11:00pm 27.3 27.5 19.4 62 5.1 ESE 17 19 9 10 1017.7 - 0.0
29/10:30pm 27.3 27.3 19.8 63 4.9 SE 19 22 10 12 1017.8 - 0.0
29/10:00pm 27.8 27.2 18.8 58 5.8 E 20 28 11 15 1017.8 - 0.0
29/09:30pm 27.6 29.0 20.3 64 4.8 SE 13 19 7 10 1017.9 - 0.0
29/09:00pm 28.1 28.1 20.2 62 5.2 E 20 32 11 17 1017.7 1017.6 0.0
29/08:30pm 28.2 27.4 19.2 58 5.8 E 22 32 12 17 1017.4 - 0.0
29/08:00pm 28.1 26.7 19.6 60 5.5 E 26 33 14 18 1017.2 - 0.0
29/07:30pm 28.2 27.3 19.1 57 5.9 E 22 30 12 16 1016.7 - 0.0
29/07:00pm 28.2 27.0 18.5 55 6.2 ESE 22 30 12 16 1016.5 - 0.0
29/06:30pm 28.1 27.8 19.5 59 5.6 E 20 28 11 15 1016.1 - 0.0
29/05:30pm 29.4 28.6 20.8 60 5.7 ENE 26 30 14 16 1015.4 - 0.0
29/05:00pm 29.2 28.3 20.6 59 5.7 ENE 26 32 14 17 1015.3 - 0.0
29/04:30pm 29.4 27.2 20.3 58 6.0 ENE 32 35 17 19 1015.0 - 0.0
29/04:00pm 30.5 28.6 19.3 51 7.3 ENE 28 33 15 18 1015.0 - 0.0
29/03:30pm 30.8 27.8 19.1 49 7.6 ENE 33 41 18 22 1014.7 - 0.0
29/03:00pm 31.7 28.9 19.0 47 8.3 ENE 32 39 17 21 1014.8 1014.7 0.0
29/02:30pm 31.3 29.3 19.2 48 7.9 ENE 28 37 15 20 1014.9 - 0.0
29/02:00pm 31.9 29.2 19.2 47 8.3 ENE 32 37 17 20 1015.1 - 0.0
29/01:30pm 31.7 29.2 19.7 49 7.9 ENE 32 41 17 22 1015.4 - 0.0
29/01:00pm 31.6 29.0 19.4 48 8.0 ENE 32 41 17 22 1015.8 - 0.0
29/12:30pm 32.1 28.9 18.5 44 8.8 E 33 48 18 26 1016.4 - 0.0
29/12:00pm 31.6 28.1 17.5 43 9.0 E 32 41 17 22 1017.1 1017.0 0.0
29/11:30am 31.3 27.9 17.7 44 8.7 E 32 41 17 22 1017.5 - 0.0
29/11:00am 31.0 28.8 18.8 48 7.9 E 28 39 15 21 1017.8 - 0.0
29/10:30am 30.6 28.7 19.4 51 7.3 E 28 33 15 18 1018.1 - 0.0
29/10:00am 29.3 29.1 19.8 56 6.2 ESE 20 30 11 16 1018.3 - 0.0
29/09:30am 29.8 28.6 19.2 53 6.9 ESE 24 37 13 20 1018.1 - 0.0
29/09:00am 29.9 28.9 18.9 51 7.1 ESE 22 35 12 19 1018.0 1017.9 0.0
29/08:30am 29.2 28.4 18.5 52 6.9 E 20 26 11 14 1017.7 - 0.0
29/08:00am 28.0 29.7 20.2 62 5.1 SE 11 17 6 9 1017.3 - 0.0
29/07:30am 27.3 29.6 20.6 67 4.4 SE 9 11 5 6 1016.9 - 0.0
29/07:00am 26.0 28.2 20.5 71 3.6 SE 9 13 5 7 1016.5 - 0.0
29/06:30am 24.9 26.8 20.5 76 2.9 SE 11 13 6 7 1016.1 - 0.0
29/06:00am 24.8 27.0 20.5 77 2.8 SE 9 11 5 6 1015.6 1015.5 0.0
29/05:30am 25.3 26.7 20.4 74 3.2 ESE 13 15 7 8 1015.1 - 0.0
29/05:00am 25.0 26.8 20.4 75 3.0 ESE 11 13 6 7 1014.8 - 0.0
29/04:30am 25.1 27.0 20.5 75 3.0 SE 11 15 6 8 1014.7 - 0.0
29/04:00am 24.9 26.8 20.5 76 2.9 SE 11 13 6 7 1014.7 - 0.0
29/03:30am 25.3 27.1 20.4 74 3.2 SSE 11 13 6 7 1014.5 - 0.0
29/03:00am 25.1 26.4 20.2 74 3.2 SSE 13 15 7 8 1014.6 1014.5 0.0
29/02:30am 25.2 26.9 20.1 73 3.3 SSE 11 15 6 8 1014.8 - 0.0
29/02:00am 25.5 26.8 20.1 72 3.5 SE 13 15 7 8 1014.9 - 0.0
29/01:30am 25.7 26.7 20.2 71 3.6 SE 15 19 8 10 1015.3 - 0.0
29/01:00am 26.2 26.9 20.4 70 3.8 ESE 17 22 9 12 1015.5 - 0.0
29/12:30am 26.3 28.3 20.7 71 3.7 ESE 11 17 6 9 1015.8 - 0.0
29/12:00am 26.7 28.1 20.4 68 4.1 SE 13 19 7 10 1016.1 1016.0 0.0
 
Date/Time
EST
Temp
°C
App
Temp
°C
Dew
Point
Rel
Hum
%
Delta-T
°C
Wind Press
QNH
hPa
Press
MSL
hPa
Rain
since 9 am
mm
Dir
 
Spd
km/h
Gust
km/h
Spd
kts
Gust
kts
28/11:30pm 27.0 28.2 20.6 68 4.2 SE 15 20 8 11 1016.3 - 0.0
28/11:00pm 27.4 28.6 20.7 67 4.4 ESE 15 19 8 10 1016.3 - 0.0
28/10:30pm 27.2 28.3 21.2 69 4.0 ESE 17 22 9 12 1016.3 - 0.0
28/10:00pm 27.4 28.6 21.4 70 4.0 SE 17 22 9 12 1016.4 - 0.0
28/09:30pm 27.9 28.7 21.3 67 4.4 E 19 26 10 14 1016.3 - 0.0
28/09:00pm 27.9 28.9 21.0 66 4.6 E 17 26 9 14 1016.3 1016.2 0.0
28/08:30pm 28.0 28.6 21.1 66 4.6 E 19 28 10 15 1015.9 - 0.0
28/08:00pm 27.9 28.4 21.1 66 4.5 E 20 28 11 15 1015.8 - 0.0
28/07:30pm 28.0 27.9 20.7 64 4.8 E 22 30 12 16 1015.3 - 0.0
28/07:00pm 28.1 27.5 20.5 63 5.0 E 24 33 13 18 1014.8 - 0.0
28/06:30pm 28.3 27.5 20.1 61 5.4 E 24 32 13 17 1014.4 - 0.0
28/06:00pm 28.9 27.1 19.5 57 6.1 E 28 33 15 18 1014.1 1014.0 0.0
28/05:30pm 29.4 27.5 18.5 52 7.0 E 26 33 14 18 1013.8 - 0.0
28/05:00pm 30.2 27.4 18.2 48 7.7 ENE 30 35 16 19 1013.6 - 0.0
28/04:30pm 30.3 29.2 19.4 52 7.1 NE 24 30 13 16 1013.6 - 0.0
28/04:00pm 30.9 29.0 19.4 50 7.5 ENE 28 35 15 19 1013.6 - 0.0
28/03:30pm 31.1 28.7 19.1 48 7.8 NE 30 37 16 20 1013.7 - 0.0
28/03:00pm 31.1 29.1 20.0 51 7.3 ENE 30 37 16 20 1013.7 1013.6 0.0
28/02:30pm 31.2 28.7 19.8 50 7.5 ENE 32 39 17 21 1013.8 - 0.0
28/02:00pm 31.7 29.2 19.7 49 7.9 ENE 32 39 17 21 1014.1 - 0.0
28/01:30pm 31.4 29.1 19.3 48 7.9 ENE 30 35 16 19 1014.4 - 0.0
28/01:00pm 32.3 29.8 18.8 44 8.8 ENE 30 37 16 20 1014.6 - 0.0
28/12:30pm 31.6 29.8 18.8 46 8.3 NE 26 33 14 18 1015.1 - 0.0
28/12:00pm 31.3 29.4 18.5 46 8.3 ENE 26 33 14 18 1015.7 1015.6 0.0
28/11:30am 31.4 29.1 18.4 46 8.4 ENE 28 35 15 19 1016.2 - 0.0
28/11:00am 30.6 28.5 18.1 47 8.0 ENE 26 35 14 19 1016.7 - 0.0
28/10:30am 30.8 29.9 18.2 47 8.1 E 20 35 11 19 1017.1 - 0.0
28/10:00am 30.6 30.0 18.9 49 7.6 E 20 30 11 16 1017.3 - 0.0
28/09:30am 29.6 29.1 19.1 53 6.8 ESE 20 30 11 16 1017.4 - 0.0
28/09:00am 29.5 29.1 19.4 54 6.6 ESE 20 33 11 18 1017.2 1017.1 0.0
28/08:30am 28.6 29.9 20.2 60 5.5 SE 13 24 7 13 1017.1 - 0.0
28/08:00am 27.4 29.2 21.1 68 4.2 SE 13 15 7 8 1016.8 - 0.0
28/07:30am 26.3 28.6 21.3 74 3.3 S 11 13 6 7 1016.4 - 0.0
28/07:00am 25.4 27.7 21.3 78 2.7 SE 11 13 6 7 1016.1 - 0.0
28/06:30am 24.7 26.6 21.4 82 2.2 SE 13 15 7 8 1015.8 - 0.0
28/06:00am 24.5 26.9 21.5 83 2.0 SSE 11 13 6 7 1015.4 1015.3 0.0
28/05:30am 25.0 26.9 21.4 80 2.4 SSE 13 15 7 8 1015.0 - 0.0
28/05:00am 24.9 27.2 21.3 80 2.4 SE 11 15 6 8 1014.8 - 0.0
28/04:30am 25.1 27.0 21.3 79 2.5 SE 13 13 7 7 1014.7 - 0.0
28/04:00am 25.1 27.1 21.5 80 2.4 SSE 13 13 7 7 1014.5 - 0.0
28/03:30am 25.3 27.7 21.5 79 2.5 SE 11 13 6 7 1014.5 - 0.0
28/03:00am 25.5 27.9 21.6 79 2.6 S 11 13 6 7 1014.6 1014.5 0.0
28/02:30am 25.8 28.2 21.6 77 2.8 SSE 11 13 6 7 1014.6 - 0.0
28/02:00am 26.2 28.6 21.5 75 3.1 SSE 11 13 6 7 1014.7 - 0.0
28/01:30am 26.4 28.8 21.6 75 3.2 SSE 11 13 6 7 1014.8 - 0.0
28/01:00am 26.5 29.4 21.7 75 3.2 SSE 9 11 5 6 1015.1 - 0.0
28/12:30am 27.2 30.0 21.5 71 3.8 ESE 9 13 5 7 1015.5 - 0.0
28/12:00am 27.4 29.9 21.1 68 4.2 E 9 15 5 8 1015.6 1015.5 0.0
 
Date/Time
EST
Temp
°C
App
Temp
°C
Dew
Point
Rel
Hum
%
Delta-T
°C
Wind Press
QNH
hPa
Press
MSL
hPa
Rain
since 9 am
mm
Dir
 
Spd
km/h
Gust
km/h
Spd
kts
Gust
kts
27/11:30pm 27.5 29.4 21.3 69 4.1 E 13 17 7 9 1015.8 - 0.0
27/11:00pm 27.7 29.4 21.6 69 4.1 E 15 19 8 10 1015.9 - 0.0
27/10:30pm 27.6 29.4 21.9 71 3.8 ENE 15 19 8 10 1016.0 - 0.0
27/10:00pm 27.7 29.8 22.5 73 3.5 ENE 15 19 8 10 1016.1 - 0.0
27/09:30pm 27.9 30.6 22.9 74 3.4 E 13 17 7 9 1016.0 - 0.0
27/09:00pm 27.7 30.4 22.8 74 3.3 ENE 13 15 7 8 1015.8 1015.7 0.0
27/08:30pm 27.8 30.5 22.8 74 3.4 ENE 13 17 7 9 1015.5 - 0.0
27/08:00pm 27.7 30.2 22.5 73 3.5 ENE 13 17 7 9 1015.3 - 0.0
27/07:30pm 27.8 29.9 22.5 73 3.6 ENE 15 19 8 10 1015.0 - 0.0
27/07:00pm 27.9 29.9 22.3 71 3.8 ENE 15 20 8 11 1014.6 - 0.0
27/06:30pm 28.0 30.2 21.9 69 4.1 NE 13 19 7 10 1014.5 - 0.0
27/06:00pm 28.5 30.1 22.1 68 4.3 NE 17 19 9 10 1014.2 1014.1 0.0
27/05:30pm 29.1 30.0 21.6 64 5.0 NE 19 26 10 14 1014.0 - 0.0
27/05:00pm 29.4 29.2 21.3 61 5.4 ENE 24 28 13 15 1014.0 - 0.0
27/04:30pm 30.3 30.2 21.5 59 5.9 NE 24 32 13 17 1013.6 - 0.0
27/04:00pm 29.9 29.0 21.4 60 5.7 NE 28 33 15 18 1013.6 - 0.0
27/03:30pm 30.3 28.6 20.5 55 6.5 ENE 30 35 16 19 1013.5 - 0.0
27/03:00pm 31.6 30.5 21.0 53 7.1 ENE 28 33 15 18 1013.5 1013.4 0.0
27/02:30pm 30.6 29.2 21.9 59 5.9 ENE 32 39 17 21 1013.7 - 0.0
27/02:00pm 31.3 30.2 22.5 59 6.0 ENE 32 37 17 20 1013.9 - 0.0
27/01:30pm 31.8 30.8 22.6 58 6.3 ENE 32 37 17 20 1014.1 - 0.0
27/01:00pm 31.7 31.6 22.3 57 6.4 NE 26 35 14 19 1014.5 - 0.0
27/12:30pm 31.5 31.4 21.4 55 6.8 NE 24 32 13 17 1014.9 - 0.0

Other Formats:

Comma delimited format used in spreadsheet applications
http://www.bom.gov.au/fwo/IDQ60801/IDQ60801.94294.axf

JavaScript Object Notation format (JSON) in row-major order
http://www.bom.gov.au/fwo/IDQ60801/IDQ60801.94294.json